createdAt,value
2023-03-06T00:40:15.914Z,100175.00
2023-03-06T00:45:20.888Z,100162.00
2023-03-06T00:50:23.433Z,100171.00
2023-03-06T00:55:25.920Z,100170.00
2023-03-06T01:00:29.959Z,100164.00
2023-03-06T01:05:36.238Z,100161.00
2023-03-06T01:10:40.239Z,100147.00
2023-03-06T01:15:44.056Z,100147.00
2023-03-06T01:20:46.437Z,100151.00
2023-03-06T01:25:48.820Z,100140.00
2023-03-06T01:30:53.097Z,100141.00
2023-03-06T01:35:55.598Z,100143.00
2023-03-06T01:40:58.013Z,100137.00
2023-03-06T01:46:34.404Z,100138.00
2023-03-06T01:51:43.684Z,100133.00
2023-03-06T01:56:51.256Z,100132.00
2023-03-06T02:01:56.521Z,100125.00
2023-03-06T02:07:02.315Z,100131.00
2023-03-06T02:12:11.680Z,100124.00
2023-03-06T02:17:19.248Z,100129.00
2023-03-06T02:22:25.702Z,100123.00
2023-03-06T02:27:30.098Z,100120.00
2023-03-06T02:32:32.726Z,100112.00
2023-03-06T02:37:35.881Z,100119.00
2023-03-06T02:42:47.240Z,100111.00
2023-03-06T02:47:50.629Z,100118.00
2023-03-06T02:52:53.104Z,100119.00
2023-03-06T02:57:56.919Z,100115.00
2023-03-06T03:03:00.289Z,100108.00
2023-03-06T03:08:02.732Z,100118.00
2023-03-06T03:13:06.714Z,100112.00
2023-03-06T03:18:11.438Z,100107.00
2023-03-06T03:23:14.085Z,100108.00
2023-03-06T03:28:18.885Z,100100.00
2023-03-06T03:33:21.513Z,100103.00
2023-03-06T03:38:24.219Z,100102.00
2023-03-06T03:43:28.769Z,100102.00
2023-03-06T03:48:32.906Z,100093.00
2023-03-06T03:53:36.012Z,100093.00
2023-03-06T03:58:41.237Z,100094.00
2023-03-06T04:03:44.206Z,100094.00
2023-03-06T04:08:51.115Z,100097.00
2023-03-06T04:13:55.195Z,100097.00
2023-03-06T04:18:57.955Z,100082.00
2023-03-06T04:24:00.656Z,100094.00
2023-03-06T04:29:05.219Z,100087.00
2023-03-06T04:34:07.797Z,100094.00
2023-03-06T04:39:11.511Z,100081.00
2023-03-06T04:44:15.573Z,100084.00
2023-03-06T04:49:18.166Z,100084.00
2023-03-06T04:54:20.633Z,100081.00
2023-03-06T04:59:24.619Z,100087.00
2023-03-06T05:04:27.038Z,100078.00
2023-03-06T05:09:29.606Z,100070.00
2023-03-06T05:14:33.733Z,100074.00
2023-03-06T05:19:36.299Z,100076.00
2023-03-06T05:24:38.734Z,100066.00
2023-03-06T05:29:42.724Z,100049.00
2023-03-06T05:34:45.235Z,100049.00
2023-03-06T05:39:48.219Z,100057.00
2023-03-06T05:44:52.369Z,100046.00
2023-03-06T05:49:54.927Z,100057.00
2023-03-06T05:54:57.748Z,100057.00
2023-03-06T06:00:03.611Z,100051.00
2023-03-06T06:05:15.588Z,100051.00
2023-03-06T06:10:18.443Z,100053.00
2023-03-06T06:15:22.616Z,100044.00
2023-03-06T06:20:25.620Z,100039.00
2023-03-06T06:25:28.250Z,100041.00
2023-03-06T06:30:43.611Z,100040.00
2023-03-06T06:35:46.481Z,100043.00
2023-03-06T06:41:19.080Z,100036.00
2023-03-06T06:46:44.662Z,100044.00
2023-03-06T06:51:36.853Z,100046.00
2023-03-06T06:56:40.088Z,100037.00
2023-03-06T07:01:45.484Z,100048.00
2023-03-06T07:06:50.942Z,100050.00
2023-03-06T07:12:02.692Z,100055.00
2023-03-06T07:17:27.308Z,100049.00
2023-03-06T07:22:59.185Z,100057.00
2023-03-06T07:29:07.909Z,100059.00
2023-03-06T07:34:22.964Z,100063.00
2023-03-06T07:39:35.090Z,100049.00
2023-03-06T07:44:41.175Z,100051.00
2023-03-06T07:50:06.537Z,100060.00
2023-03-06T07:55:26.182Z,100057.00
2023-03-06T08:00:40.507Z,100065.00
2023-03-06T08:05:47.420Z,100061.00
2023-03-06T08:10:50.617Z,100045.00
2023-03-06T08:16:00.375Z,100065.00
2023-03-06T08:21:11.423Z,100066.00
2023-03-06T08:26:31.120Z,100062.00
2023-03-06T08:31:38.584Z,100069.00
2023-03-06T08:36:44.561Z,100050.00
2023-03-06T08:41:48.168Z,100053.00
2023-03-06T08:46:55.112Z,100044.00
2023-03-06T08:52:05.413Z,100041.00
2023-03-06T08:57:11.708Z,100048.00
2023-03-06T09:02:19.956Z,100034.00
2023-03-06T09:07:25.787Z,100049.00
2023-03-06T09:12:32.563Z,100047.00
2023-03-06T09:17:41.327Z,100034.00
2023-03-06T09:22:55.213Z,100050.00
2023-03-06T09:28:11.306Z,100033.00
2023-03-06T09:34:00.157Z,100045.00
2023-03-06T09:52:37.421Z,100043.00
2023-03-06T09:57:55.719Z,100029.00
2023-03-06T10:03:47.974Z,100026.00
2023-03-06T10:09:05.987Z,100041.00
2023-03-06T10:14:29.704Z,100024.00
2023-03-06T10:19:45.542Z,100018.00
2023-03-06T10:24:57.407Z,100028.00
2023-03-06T10:30:27.096Z,100020.00
2023-03-06T10:35:50.464Z,100016.00
2023-03-06T10:41:25.324Z,100018.00
2023-03-06T10:47:04.298Z,100018.00
2023-03-06T10:52:26.971Z,100004.00
2023-03-06T10:57:42.516Z,100001.00
2023-03-06T11:03:24.355Z,100015.00
2023-03-06T11:08:38.223Z,100003.00
2023-03-06T11:13:56.155Z,100008.00
2023-03-06T11:19:20.352Z,100003.00
2023-03-06T11:24:26.502Z,99991.00
2023-03-06T11:29:58.149Z,100003.00
2023-03-06T11:49:50.599Z,99981.00
2023-03-06T11:55:56.838Z,99963.00
2023-03-06T12:01:31.976Z,99977.00
2023-03-06T12:07:23.606Z,99968.00
2023-03-06T12:33:18.636Z,99964.00
2023-03-06T12:39:40.741Z,99953.00
2023-03-06T12:45:48.513Z,99948.00
2023-03-06T12:51:06.196Z,99960.00
2023-03-06T12:56:20.728Z,99960.00
2023-03-06T13:08:12.016Z,99940.00
2023-03-06T13:14:54.603Z,99933.00
2023-03-06T13:27:09.109Z,99933.00
2023-03-06T13:32:20.534Z,99935.00
2023-03-06T13:37:54.272Z,99929.00
2023-03-06T13:43:40.713Z,99951.00
2023-03-06T13:48:46.014Z,99937.00
2023-03-06T13:54:33.999Z,99924.00
2023-03-06T14:00:18.991Z,99940.00
2023-03-06T14:05:23.546Z,99932.00
2023-03-06T14:10:34.441Z,99927.00
2023-03-06T14:15:55.431Z,99926.00
2023-03-06T14:21:02.046Z,99939.00
2023-03-06T14:26:18.814Z,99937.00
2023-03-06T14:31:28.576Z,99916.00
2023-03-06T14:36:39.726Z,99922.00
2023-03-06T14:42:04.577Z,99923.00
2023-03-06T14:47:25.965Z,99934.00
2023-03-06T14:52:36.312Z,99928.00
2023-03-06T14:57:41.606Z,99921.00
2023-03-06T15:02:46.514Z,99922.00
2023-03-06T15:07:51.341Z,99921.00
2023-03-06T15:12:54.822Z,99920.00
2023-03-06T15:17:59.479Z,99922.00
2023-03-06T15:23:02.901Z,99926.00
2023-03-06T15:28:31.549Z,99922.00
2023-03-06T15:33:38.750Z,99920.00
2023-03-06T15:38:44.279Z,99921.00
2023-03-06T15:43:47.244Z,99928.00
2023-03-06T15:48:56.774Z,99923.00
2023-03-06T15:54:11.222Z,99924.00
2023-03-06T15:59:22.245Z,99919.00
2023-03-06T16:04:26.280Z,99925.00
2023-03-06T16:09:28.756Z,99925.00
2023-03-06T16:14:31.529Z,99920.00
2023-03-06T16:19:35.428Z,99911.00
2023-03-06T16:24:38.080Z,99924.00
2023-03-06T16:29:40.672Z,99917.00
2023-03-06T16:34:44.589Z,99914.00
2023-03-06T16:39:47.077Z,99915.00
2023-03-06T16:44:49.593Z,99920.00
2023-03-06T16:49:53.636Z,99918.00
2023-03-06T16:54:56.498Z,99921.00
2023-03-06T16:59:59.408Z,99921.00
2023-03-06T17:05:04.242Z,99932.00
2023-03-06T17:10:10.730Z,99937.00
2023-03-06T17:15:14.704Z,99943.00
2023-03-06T17:20:20.641Z,99941.00
2023-03-06T17:25:23.622Z,99931.00
2023-03-06T17:30:26.453Z,99934.00
2023-03-06T17:35:30.987Z,99943.00
2023-03-06T17:40:34.505Z,99945.00
2023-03-06T17:45:37.218Z,99937.00
2023-03-06T17:50:41.260Z,99945.00
2023-03-06T17:55:43.963Z,99939.00
2023-03-06T18:00:46.742Z,99944.00
2023-03-06T18:05:59.667Z,99936.00
2023-03-06T18:11:04.489Z,99941.00
2023-03-06T18:16:08.877Z,99949.00
2023-03-06T18:21:15.608Z,99940.00
2023-03-06T18:26:21.479Z,99935.00
2023-03-06T18:31:27.947Z,99939.00
2023-03-06T18:36:33.710Z,99934.00
2023-03-06T18:41:37.337Z,99938.00
2023-03-06T18:46:39.926Z,99940.00
2023-03-06T18:51:43.945Z,99937.00
2023-03-06T18:56:46.571Z,99945.00
2023-03-06T19:01:49.199Z,99936.00
2023-03-06T19:06:53.228Z,99932.00
2023-03-06T19:11:58.361Z,99936.00
2023-03-06T19:17:01.164Z,99934.00
2023-03-06T19:22:05.504Z,99929.00
2023-03-06T19:27:08.161Z,99942.00
2023-03-06T19:32:11.010Z,99943.00
2023-03-06T19:37:15.091Z,99937.00
2023-03-06T19:42:17.997Z,99953.00
2023-03-06T19:47:20.659Z,99959.00
2023-03-06T19:52:24.915Z,99960.00
2023-03-06T19:57:27.525Z,99961.00
2023-03-06T20:02:30.141Z,99963.00
2023-03-06T20:07:34.121Z,99966.00
2023-03-06T20:12:36.984Z,99966.00
2023-03-06T20:17:39.743Z,99964.00
2023-03-06T20:22:43.854Z,99970.00
2023-03-06T20:27:46.289Z,99973.00
2023-03-06T20:32:48.740Z,99965.00
2023-03-06T20:37:52.729Z,99957.00
2023-03-06T20:42:55.212Z,99968.00
2023-03-06T20:47:57.654Z,99973.00
2023-03-06T20:53:01.861Z,99977.00
2023-03-06T20:58:04.404Z,99968.00
2023-03-06T21:03:06.982Z,99970.00
2023-03-06T21:08:10.875Z,99968.00
2023-03-06T21:13:13.782Z,99959.00
2023-03-06T21:18:16.655Z,99965.00
2023-03-06T21:23:20.541Z,99967.00
2023-03-06T21:28:22.986Z,99969.00
2023-03-06T21:33:25.583Z,99968.00
2023-03-06T21:38:29.836Z,99962.00
2023-03-06T21:43:32.541Z,99971.00
2023-03-06T21:48:35.108Z,99959.00
2023-03-06T21:53:41.837Z,99965.00
2023-03-06T21:58:45.132Z,99962.00
2023-03-06T22:03:47.697Z,99962.00
2023-03-06T22:08:52.124Z,99964.00
2023-03-06T22:13:54.555Z,99953.00
2023-03-06T22:18:57.359Z,99952.00
2023-03-06T22:24:01.300Z,99948.00
2023-03-06T22:29:03.884Z,99940.00
2023-03-06T22:34:06.333Z,99937.00
2023-03-06T22:39:13.534Z,99954.00
2023-03-06T22:44:18.914Z,99957.00
2023-03-06T22:49:21.509Z,99949.00
2023-03-06T22:54:25.754Z,99940.00
2023-03-06T22:59:28.416Z,99953.00
2023-03-06T23:04:30.893Z,99947.00
2023-03-06T23:09:35.533Z,99953.00
2023-03-06T23:14:56.855Z,99947.00
2023-03-06T23:20:18.604Z,99949.00
2023-03-06T23:25:41.170Z,99938.00
2023-03-06T23:30:43.906Z,99934.00
2023-03-06T23:35:46.983Z,99943.00
2023-03-06T23:40:50.902Z,99933.00
2023-03-06T23:45:54.590Z,99927.00
2023-03-06T23:50:57.310Z,99926.00
2023-03-06T23:56:04.255Z,99929.00
